Time;durP1;ratioP1;P1;durP2;ratioP2;P2;SDS_P1;SDS_P2;PMS_P1;PMS_P2;Temp;Humidity;BMP_temperature;BMP_pressure;BME280_temperature;BME280_humidity;BME280_pressure;Samples;Min_cycle;Max_cycle;Signal;HPM_P1;HPM_P2
2024/01/09 00:01:20;;;;;;;9.80;3.88;;;2.30;99.90;;;;;;4998949;28;20050;-66
2024/01/09 00:03:47;;;;;;;9.90;3.17;;;2.30;99.90;;;;;;5002751;28;20050;-68
2024/01/09 00:06:19;;;;;;;10.73;4.00;;;2.20;99.90;;;;;;4996611;28;20129;-67
2024/01/09 00:08:46;;;;;;;14.30;3.17;;;2.20;99.90;;;;;;4983496;28;20096;-66
2024/01/09 00:11:14;;;;;;;14.13;4.45;;;2.20;99.90;;;;;;4651527;28;10000004;-67
2024/01/09 00:13:41;;;;;;;9.90;2.95;;;2.20;99.90;;;;;;4996090;28;20496;-67
2024/01/09 00:16:08;;;;;;;10.32;3.55;;;2.20;99.90;;;;;;4979803;28;20041;-67
2024/01/09 00:18:35;;;;;;;12.77;3.38;;;2.20;99.90;;;;;;4995313;28;20046;-69
2024/01/09 00:21:02;;;;;;;7.35;3.50;;;2.20;99.90;;;;;;4994982;28;20057;-66
2024/01/09 00:23:29;;;;;;;15.98;5.03;;;2.30;99.90;;;;;;4997750;28;20133;-67
2024/01/09 00:25:56;;;;;;;8.10;4.10;;;2.30;99.90;;;;;;4979470;28;20540;-67
2024/01/09 00:28:23;;;;;;;8.18;3.20;;;2.30;99.90;;;;;;4995784;28;20050;-67
2024/01/09 00:30:49;;;;;;;38.03;5.78;;;2.30;99.90;;;;;;4998528;28;20328;-68
2024/01/09 00:33:16;;;;;;;7.97;3.83;;;2.30;99.90;;;;;;4997680;28;20814;-67
2024/01/09 00:35:44;;;;;;;10.60;2.80;;;2.20;99.90;;;;;;5001311;28;20046;-67
2024/01/09 00:38:11;;;;;;;10.02;3.72;;;2.20;99.90;;;;;;5004759;28;20037;-67
2024/01/09 00:40:39;;;;;;;14.88;4.32;;;2.20;99.90;;;;;;5002000;28;20132;-66
2024/01/09 00:43:06;;;;;;;11.10;3.95;;;2.20;99.90;;;;;;4996507;28;20128;-67
2024/01/09 00:45:33;;;;;;;12.90;3.78;;;2.20;99.90;;;;;;4999631;28;20488;-67
2024/01/09 00:48:05;;;;;;;13.18;3.40;;;2.30;99.90;;;;;;4996744;28;20198;-67
2024/01/09 00:50:32;;;;;;;6.55;2.78;;;2.20;99.90;;;;;;5005845;28;20489;-67
2024/01/09 00:52:59;;;;;;;8.80;3.28;;;2.20;99.90;;;;;;4988680;28;20314;-68
2024/01/09 00:55:26;;;;;;;7.55;2.65;;;2.30;99.90;;;;;;5000459;28;20058;-67
2024/01/09 00:57:53;;;;;;;6.63;2.85;;;2.30;99.90;;;;;;5000517;28;20051;-66
2024/01/09 01:00:20;;;;;;;17.75;3.22;;;2.20;99.90;;;;;;4982748;28;20142;-67
2024/01/09 01:02:47;;;;;;;9.43;3.55;;;2.30;99.90;;;;;;4995348;28;20058;-68
2024/01/09 01:05:15;;;;;;;9.68;4.78;;;2.30;99.90;;;;;;4994869;28;20041;-68
2024/01/09 01:07:42;;;;;;;8.40;2.90;;;2.30;99.90;;;;;;4997480;28;20050;-67
2024/01/09 01:10:12;;;;;;;13.25;3.25;;;2.30;99.90;;;;;;4999112;28;20042;-67
2024/01/09 01:12:40;;;;;;;7.93;2.83;;;2.30;99.90;;;;;;4994568;28;20046;-67
2024/01/09 01:15:07;;;;;;;17.13;3.97;;;2.30;99.90;;;;;;4995273;28;20100;-67
2024/01/09 01:17:34;;;;;;;9.27;3.25;;;2.20;99.90;;;;;;4991552;28;20104;-67
2024/01/09 01:20:02;;;;;;;8.45;2.85;;;2.20;99.90;;;;;;4995779;28;20061;-67
2024/01/09 01:22:29;;;;;;;7.97;2.75;;;2.20;99.90;;;;;;5007472;28;20508;-67
2024/01/09 01:24:56;;;;;;;11.50;3.33;;;2.20;99.90;;;;;;5004602;28;20050;-67
2024/01/09 01:27:22;;;;;;;7.95;3.30;;;2.30;99.90;;;;;;5003419;28;20049;-68
2024/01/09 01:29:49;;;;;;;11.13;3.75;;;2.30;99.90;;;;;;5008924;28;20107;-67
2024/01/09 01:32:16;;;;;;;6.32;2.53;;;2.30;99.90;;;;;;5004921;28;20172;-67
2024/01/09 01:34:43;;;;;;;11.77;2.83;;;2.40;99.90;;;;;;5006360;28;20049;-67
2024/01/09 01:37:10;;;;;;;9.18;3.67;;;2.40;99.90;;;;;;4989675;28;20065;-67
2024/01/09 01:39:37;;;;;;;8.48;3.55;;;2.40;99.90;;;;;;5004545;28;20068;-67
2024/01/09 01:42:04;;;;;;;6.18;2.85;;;2.40;99.90;;;;;;5006750;28;20050;-67
2024/01/09 01:44:31;;;;;;;10.70;2.78;;;2.30;99.90;;;;;;4989402;28;20042;-67
2024/01/09 01:46:58;;;;;;;11.48;3.13;;;2.40;99.90;;;;;;5001101;28;20058;-67
2024/01/09 01:49:25;;;;;;;9.48;2.63;;;2.30;99.90;;;;;;4977885;28;20042;-67
2024/01/09 01:51:52;;;;;;;12.63;5.88;;;2.30;99.90;;;;;;4997775;28;20050;-67
2024/01/09 01:54:19;;;;;;;7.63;3.17;;;2.30;99.90;;;;;;4995193;28;20109;-68
2024/01/09 01:56:46;;;;;;;11.07;2.53;;;2.40;99.90;;;;;;4986409;28;20432;-67
2024/01/09 01:59:15;;;;;;;6.75;3.50;;;2.40;99.90;;;;;;5001044;28;20049;-67
2024/01/09 02:01:44;;;;;;;9.88;3.95;;;2.30;99.90;;;;;;4999818;28;20049;-67
2024/01/09 02:04:11;;;;;;;8.55;3.20;;;2.30;99.90;;;;;;4986838;28;20049;-68
2024/01/09 02:06:38;;;;;;;7.88;2.75;;;2.40;99.90;;;;;;4972657;28;20045;-67
2024/01/09 02:09:05;;;;;;;9.00;3.78;;;2.30;99.90;;;;;;4989117;28;20704;-67
2024/01/09 02:11:32;;;;;;;10.63;3.10;;;2.40;99.90;;;;;;5006593;28;20053;-67
2024/01/09 02:13:59;;;;;;;14.02;2.85;;;2.60;99.90;;;;;;5007028;28;20046;-67
2024/01/09 02:16:25;;;;;;;7.88;2.95;;;2.50;99.90;;;;;;5003887;28;20050;-67
2024/01/09 02:18:52;;;;;;;13.25;3.78;;;2.30;99.90;;;;;;4988051;28;20493;-67
2024/01/09 02:21:19;;;;;;;6.93;2.95;;;2.30;99.90;;;;;;5005569;28;20293;-67
2024/01/09 02:23:48;;;;;;;6.88;3.22;;;2.40;99.90;;;;;;5003633;28;20412;-67
2024/01/09 02:26:19;;;;;;;17.35;3.95;;;2.40;99.90;;;;;;4973155;28;20509;-67
2024/01/09 02:29:06;;;;;;;10.48;3.40;;;2.40;99.90;;;;;;4966686;28;20051;-67
2024/01/09 02:31:33;;;;;;;5.60;2.80;;;2.40;99.90;;;;;;4967081;28;20053;-67
2024/01/09 02:34:01;;;;;;;11.30;2.80;;;2.30;99.90;;;;;;4961909;28;20046;-67
2024/01/09 02:36:28;;;;;;;8.45;2.90;;;2.30;99.90;;;;;;4966666;28;20498;-67
2024/01/09 02:38:55;;;;;;;6.60;3.15;;;2.70;99.90;;;;;;4962760;28;20058;-67
2024/01/09 02:41:23;;;;;;;7.13;2.85;;;2.30;99.90;;;;;;4960715;28;20054;-67
2024/01/09 02:43:49;;;;;;;15.20;3.50;;;2.40;99.90;;;;;;4966153;28;20050;-67
2024/01/09 02:46:17;;;;;;;6.25;2.67;;;2.40;99.90;;;;;;4974410;28;20449;-67
2024/01/09 02:48:43;;;;;;;13.15;3.50;;;2.40;99.90;;;;;;4967898;28;20475;-67
2024/01/09 02:51:10;;;;;;;5.55;3.10;;;2.30;99.90;;;;;;4956703;28;20050;-67
2024/01/09 02:53:37;;;;;;;6.88;3.28;;;2.40;99.90;;;;;;4963737;28;20039;-67
2024/01/09 02:56:05;;;;;;;8.63;3.17;;;2.40;99.90;;;;;;4981944;28;20326;-68
2024/01/09 02:58:32;;;;;;;7.10;3.15;;;2.40;99.90;;;;;;4964243;28;20050;-67
2024/01/09 03:01:00;;;;;;;11.68;3.88;;;2.40;99.90;;;;;;4966465;28;20050;-67
2024/01/09 03:03:27;;;;;;;10.63;3.03;;;2.40;99.90;;;;;;4963936;28;20146;-67
2024/01/09 03:05:54;;;;;;;11.75;4.32;;;2.40;99.90;;;;;;4964512;28;20047;-67
2024/01/09 03:08:21;;;;;;;8.75;2.97;;;2.40;99.90;;;;;;4956292;28;20530;-67
2024/01/09 03:10:48;;;;;;;15.00;4.45;;;2.40;99.90;;;;;;4962390;28;20290;-67
2024/01/09 03:13:14;;;;;;;7.15;3.00;;;2.30;99.90;;;;;;4962377;28;20050;-66
2024/01/09 03:15:41;;;;;;;12.10;5.30;;;2.40;99.90;;;;;;4968556;28;20102;-66
2024/01/09 03:18:08;;;;;;;11.98;3.03;;;2.40;99.90;;;;;;4970196;28;20051;-66
2024/01/09 03:20:35;;;;;;;6.80;3.47;;;2.40;99.90;;;;;;4969553;28;20450;-66
2024/01/09 03:23:02;;;;;;;8.45;2.90;;;2.40;99.90;;;;;;4962563;28;20051;-67
2024/01/09 03:25:29;;;;;;;10.63;3.55;;;2.40;99.90;;;;;;4969871;28;20043;-66
2024/01/09 03:27:56;;;;;;;13.45;3.88;;;2.40;99.90;;;;;;4993916;28;20045;-66
2024/01/09 03:30:23;;;;;;;10.10;3.88;;;2.40;99.90;;;;;;5004312;28;20147;-67
2024/01/09 03:32:50;;;;;;;8.45;3.65;;;2.50;99.90;;;;;;5008302;28;20041;-66
2024/01/09 03:35:17;;;;;;;14.35;4.10;;;2.30;99.90;;;;;;5007379;28;20051;-67
2024/01/09 03:37:44;;;;;;;9.00;3.40;;;2.30;99.90;;;;;;5000331;28;20053;-66
2024/01/09 03:40:11;;;;;;;10.27;3.35;;;2.30;99.90;;;;;;5009531;28;20050;-68
2024/01/09 03:42:38;;;;;;;10.52;3.40;;;2.30;99.90;;;;;;5008088;28;20046;-67
2024/01/09 03:45:06;;;;;;;15.95;3.13;;;2.50;99.90;;;;;;5008862;28;20362;-67
2024/01/09 03:47:33;;;;;;;6.65;3.33;;;2.30;99.90;;;;;;5007910;28;20103;-67
2024/01/09 03:50:00;;;;;;;7.75;3.70;;;2.30;99.90;;;;;;5007234;28;20046;-66
2024/01/09 03:52:27;;;;;;;15.05;2.88;;;2.30;99.90;;;;;;5008646;28;20136;-66
2024/01/09 03:54:54;;;;;;;12.18;4.13;;;2.30;99.90;;;;;;5008353;28;20551;-67
2024/01/09 03:57:20;;;;;;;16.25;3.55;;;2.30;99.90;;;;;;5005677;28;20085;-66
2024/01/09 03:59:47;;;;;;;13.82;3.55;;;2.30;99.90;;;;;;5005270;28;20104;-67
2024/01/09 04:02:14;;;;;;;8.10;3.05;;;2.20;99.90;;;;;;5006889;28;20045;-67
2024/01/09 04:04:41;;;;;;;9.45;2.80;;;2.20;99.90;;;;;;5017588;28;20512;-67
2024/01/09 04:07:08;;;;;;;8.65;3.75;;;2.30;99.90;;;;;;4989579;28;20483;-68
2024/01/09 04:09:35;;;;;;;9.20;3.38;;;2.20;99.90;;;;;;4991259;28;20042;-69
2024/01/09 04:12:02;;;;;;;7.63;3.65;;;2.20;99.90;;;;;;5009500;28;20045;-67
2024/01/09 04:14:28;;;;;;;17.60;4.78;;;2.20;99.90;;;;;;5006789;28;20178;-67
2024/01/09 04:16:56;;;;;;;11.88;3.03;;;2.20;99.90;;;;;;5007172;28;20516;-66
2024/01/09 04:19:23;;;;;;;10.57;3.55;;;2.30;99.90;;;;;;5009734;28;20054;-67
2024/01/09 04:21:49;;;;;;;9.52;3.35;;;2.30;99.90;;;;;;4992051;28;20221;-67
2024/01/09 04:24:16;;;;;;;14.23;4.15;;;2.30;99.90;;;;;;5005475;28;20054;-68
2024/01/09 04:26:43;;;;;;;11.60;3.75;;;2.30;99.90;;;;;;5001576;28;20418;-66
2024/01/09 04:29:10;;;;;;;8.98;3.05;;;2.30;99.90;;;;;;5015037;28;20050;-66
2024/01/09 04:31:37;;;;;;;7.95;3.25;;;2.30;99.90;;;;;;5008117;28;20049;-68
2024/01/09 04:34:04;;;;;;;14.05;3.28;;;2.30;99.90;;;;;;4992365;28;20052;-68
2024/01/09 04:36:31;;;;;;;6.15;2.80;;;2.20;99.90;;;;;;5009020;28;20046;-65
2024/01/09 04:39:00;;;;;;;8.48;3.70;;;2.20;99.90;;;;;;5009842;28;20038;-66
2024/01/09 04:41:26;;;;;;;10.35;3.78;;;2.30;99.90;;;;;;5015669;28;20042;-67
2024/01/09 04:43:53;;;;;;;7.43;3.78;;;2.20;99.90;;;;;;4998671;28;20045;-66
2024/01/09 04:46:20;;;;;;;13.45;5.55;;;2.20;99.90;;;;;;4993631;28;20042;-66
2024/01/09 04:48:47;;;;;;;9.20;3.88;;;2.30;99.90;;;;;;5006527;28;20053;-67
2024/01/09 04:51:14;;;;;;;9.82;3.72;;;2.30;99.90;;;;;;5008762;28;20053;-67
2024/01/09 04:53:41;;;;;;;11.80;5.43;;;2.20;99.90;;;;;;5007303;28;20118;-68
2024/01/09 04:56:08;;;;;;;11.13;4.10;;;2.30;99.90;;;;;;5005665;28;20072;-66
2024/01/09 04:58:35;;;;;;;13.13;3.20;;;2.20;99.90;;;;;;5008029;28;20073;-66
2024/01/09 05:01:02;;;;;;;14.23;4.10;;;2.20;99.90;;;;;;4989522;28;20053;-66
2024/01/09 05:03:29;;;;;;;11.02;3.35;;;2.20;99.90;;;;;;5007799;28;20046;-66
2024/01/09 05:05:56;;;;;;;12.00;3.13;;;2.30;99.90;;;;;;4997910;28;20522;-66
2024/01/09 05:08:23;;;;;;;7.28;2.97;;;2.30;99.90;;;;;;5007842;28;20096;-67
2024/01/09 05:10:50;;;;;;;9.27;3.13;;;2.20;99.90;;;;;;5000754;28;20046;-67
2024/01/09 05:13:17;;;;;;;9.63;3.67;;;2.30;99.90;;;;;;5000721;28;20054;-67
2024/01/09 05:15:44;;;;;;;17.35;3.00;;;2.30;99.90;;;;;;5009811;28;20088;-67
2024/01/09 05:18:11;;;;;;;11.15;4.15;;;2.30;99.90;;;;;;4998789;28;20324;-66
2024/01/09 05:20:38;;;;;;;9.10;3.30;;;2.30;99.90;;;;;;5001036;28;20048;-67
2024/01/09 05:23:05;;;;;;;10.15;3.30;;;2.30;99.90;;;;;;5010172;28;20122;-67
2024/01/09 05:25:32;;;;;;;14.32;3.47;;;2.40;99.90;;;;;;5006714;28;20077;-67
2024/01/09 05:27:58;;;;;;;10.48;3.25;;;2.30;99.90;;;;;;5007342;28;20100;-67
2024/01/09 05:30:25;;;;;;;6.65;3.55;;;2.30;99.90;;;;;;5003582;28;20057;-67
2024/01/09 05:32:52;;;;;;;6.00;3.08;;;2.30;99.90;;;;;;5003082;28;20400;-65
2024/01/09 05:35:19;;;;;;;9.15;3.13;;;2.50;99.90;;;;;;4994783;28;20077;-66
2024/01/09 05:37:46;;;;;;;14.13;4.75;;;2.30;99.90;;;;;;5002566;28;20060;-66
2024/01/09 05:40:13;;;;;;;24.30;5.28;;;2.40;99.90;;;;;;5008632;28;20045;-66
2024/01/09 05:42:40;;;;;;;11.00;3.47;;;2.40;99.90;;;;;;4997369;28;20057;-66
2024/01/09 05:45:07;;;;;;;10.90;2.90;;;2.40;99.90;;;;;;5002610;28;20042;-67
2024/01/09 05:47:34;;;;;;;15.48;4.85;;;2.40;99.90;;;;;;5007732;28;20124;-68
2024/01/09 05:50:01;;;;;;;8.35;3.20;;;2.40;99.90;;;;;;5003595;28;20086;-66
2024/01/09 05:52:28;;;;;;;8.25;3.33;;;2.40;99.90;;;;;;5003180;28;20049;-66
2024/01/09 05:54:55;;;;;;;15.82;5.45;;;2.50;99.90;;;;;;4988955;28;20054;-67
2024/01/09 05:57:22;;;;;;;7.95;3.47;;;2.40;99.90;;;;;;5006233;28;20058;-67
2024/01/09 05:59:49;;;;;;;9.40;3.33;;;2.40;99.90;;;;;;5002712;28;20042;-68
2024/01/09 06:02:15;;;;;;;13.65;4.43;;;2.40;99.90;;;;;;4997803;28;20042;-67
2024/01/09 06:04:42;;;;;;;10.43;3.90;;;2.40;99.90;;;;;;4990828;28;20413;-67
2024/01/09 06:07:09;;;;;;;8.70;3.25;;;2.40;99.90;;;;;;5005484;28;20442;-68
2024/01/09 06:09:36;;;;;;;9.48;3.42;;;2.40;99.90;;;;;;5016093;28;20119;-67
2024/01/09 06:12:03;;;;;;;19.75;3.90;;;2.40;99.90;;;;;;5006618;28;20081;-68
2024/01/09 06:14:30;;;;;;;9.20;2.85;;;2.40;99.90;;;;;;4994355;28;20041;-68
2024/01/09 06:16:57;;;;;;;14.70;3.42;;;2.40;99.90;;;;;;5002764;28;20061;-68
2024/01/09 06:19:23;;;;;;;11.25;3.78;;;2.40;99.90;;;;;;5005752;28;20112;-68
2024/01/09 06:21:50;;;;;;;15.88;4.32;;;2.40;99.90;;;;;;5005907;28;20046;-67
2024/01/09 06:24:17;;;;;;;5.93;3.88;;;2.40;99.90;;;;;;5005025;28;20061;-66
2024/01/09 06:26:44;;;;;;;17.08;3.50;;;2.40;99.90;;;;;;5005203;28;20042;-67
2024/01/09 06:29:11;;;;;;;11.10;4.25;;;2.40;99.90;;;;;;4988602;28;20060;-67
2024/01/09 06:31:40;;;;;;;13.13;3.60;;;2.40;99.90;;;;;;5005604;28;20049;-67
2024/01/09 06:34:07;;;;;;;13.73;2.85;;;2.30;99.90;;;;;;5005897;28;20053;-66
2024/01/09 06:36:34;;;;;;;9.00;3.40;;;2.50;99.90;;;;;;4997239;28;20054;-66
2024/01/09 06:39:01;;;;;;;7.15;3.08;;;2.30;99.90;;;;;;5006035;28;20115;-67
2024/01/09 06:41:29;;;;;;;9.38;2.97;;;2.30;99.90;;;;;;5005429;28;20447;-67
2024/01/09 06:43:55;;;;;;;16.38;3.22;;;2.30;99.90;;;;;;5006491;28;20050;-66
2024/01/09 06:46:22;;;;;;;12.98;3.58;;;2.40;99.90;;;;;;5004259;28;20042;-67
2024/01/09 06:48:49;;;;;;;15.70;3.38;;;2.30;99.90;;;;;;5005485;28;20080;-67
2024/01/09 06:51:16;;;;;;;11.23;3.90;;;2.30;99.90;;;;;;5004599;28;20038;-67
2024/01/09 06:53:43;;;;;;;12.18;3.67;;;2.40;99.90;;;;;;5004470;28;20140;-74
2024/01/09 06:56:10;;;;;;;7.90;3.25;;;2.20;99.90;;;;;;5001781;28;20042;-68
2024/01/09 06:58:37;;;;;;;7.30;2.78;;;2.30;99.90;;;;;;5001687;28;20088;-67
2024/01/09 07:01:04;;;;;;;9.15;3.17;;;2.30;99.90;;;;;;4991930;28;20046;-67
2024/01/09 07:03:30;;;;;;;8.52;2.88;;;2.30;99.90;;;;;;4987704;28;20132;-67
2024/01/09 07:05:58;;;;;;;8.32;3.50;;;2.30;99.90;;;;;;4989571;28;20504;-68
2024/01/09 07:08:25;;;;;;;7.13;2.70;;;2.30;99.90;;;;;;5000286;28;20073;-67
2024/01/09 07:10:52;;;;;;;9.35;3.17;;;2.20;99.90;;;;;;5001961;28;20042;-66
2024/01/09 07:13:18;;;;;;;10.15;2.75;;;2.20;99.90;;;;;;5001588;28;20050;-69
2024/01/09 07:15:45;;;;;;;12.77;3.40;;;2.20;99.90;;;;;;4986362;28;20049;-67
2024/01/09 07:18:12;;;;;;;10.70;3.55;;;2.30;99.90;;;;;;5002556;28;20049;-67
2024/01/09 07:20:39;;;;;;;14.30;3.33;;;2.20;99.90;;;;;;4997072;28;20076;-67
2024/01/09 07:23:06;;;;;;;13.25;3.80;;;2.20;99.90;;;;;;5003007;28;20050;-67
2024/01/09 07:25:45;;;;;;;6.57;2.83;;;2.20;99.90;;;;;;5003739;28;20050;-67
2024/01/09 07:28:12;;;;;;;12.40;3.30;;;2.20;99.90;;;;;;5001949;28;20054;-67
2024/01/09 07:30:39;;;;;;;9.52;4.00;;;2.20;99.90;;;;;;4984522;28;20038;-66
2024/01/09 07:33:06;;;;;;;9.13;3.30;;;2.20;99.90;;;;;;5004618;28;20153;-66
2024/01/09 07:35:37;;;;;;;16.60;4.28;;;2.30;99.90;;;;;;5005612;28;20105;-66
2024/01/09 07:38:04;;;;;;;11.10;3.88;;;2.20;99.90;;;;;;4992671;28;20497;-65
2024/01/09 07:40:31;;;;;;;13.02;3.85;;;2.20;99.90;;;;;;5002525;28;20042;-63
2024/01/09 07:42:59;;;;;;;9.98;3.35;;;2.20;99.90;;;;;;4986621;28;20116;-66
2024/01/09 07:45:29;;;;;;;15.18;4.25;;;2.20;99.90;;;;;;4998951;28;20092;-66
2024/01/09 07:47:57;;;;;;;10.30;3.75;;;2.20;99.90;;;;;;5001976;28;20454;-66
2024/01/09 07:50:24;;;;;;;11.90;4.25;;;2.20;99.90;;;;;;5001246;28;20053;-65
2024/01/09 07:52:51;;;;;;;10.70;3.88;;;2.20;99.90;;;;;;4987059;28;20108;-64
2024/01/09 07:55:18;;;;;;;12.18;4.13;;;2.20;99.90;;;;;;4985939;28;20081;-65
2024/01/09 07:57:45;;;;;;;13.77;3.85;;;2.20;99.90;;;;;;5003889;28;20073;-65
2024/01/09 08:00:13;;;;;;;12.93;4.07;;;2.20;99.90;;;;;;4986995;28;20069;-66
2024/01/09 08:02:39;;;;;;;24.58;4.35;;;2.20;99.90;;;;;;5012244;28;20374;-65
2024/01/09 08:05:07;;;;;;;11.80;3.95;;;2.20;99.90;;;;;;5006066;28;20056;-66
2024/01/09 08:07:34;;;;;;;12.50;4.32;;;2.20;99.90;;;;;;5010183;28;20500;-65
2024/01/09 08:10:01;;;;;;;11.25;4.57;;;2.20;99.90;;;;;;5008687;28;20456;-66
2024/01/09 08:12:27;;;;;;;14.57;4.03;;;2.20;99.90;;;;;;5005520;28;20054;-65
2024/01/09 08:14:54;;;;;;;17.05;4.10;;;2.20;99.90;;;;;;5002967;28;20050;-66
2024/01/09 08:17:21;;;;;;;14.75;3.53;;;2.20;99.90;;;;;;5006286;28;20046;-65
2024/01/09 08:19:49;;;;;;;16.80;4.90;;;2.30;99.90;;;;;;5009966;28;20044;-65
2024/01/09 08:22:18;;;;;;;13.45;4.88;;;2.10;99.90;;;;;;5003170;28;20108;-64
2024/01/09 08:24:45;;;;;;;13.43;4.45;;;2.10;99.90;;;;;;5000088;28;20143;-65
2024/01/09 08:27:11;;;;;;;12.60;3.80;;;2.00;99.90;;;;;;5004324;28;20062;-64
2024/01/09 08:29:38;;;;;;;10.73;3.95;;;2.00;99.90;;;;;;4999913;28;20104;-65
2024/01/09 08:32:05;;;;;;;15.85;5.13;;;2.00;99.90;;;;;;4972291;28;20117;-66
2024/01/09 08:34:32;;;;;;;13.65;4.30;;;2.10;99.90;;;;;;5008158;28;20046;-65
2024/01/09 08:36:59;;;;;;;11.65;4.10;;;2.00;99.90;;;;;;4997622;28;20041;-65
2024/01/09 08:39:26;;;;;;;13.45;3.67;;;2.00;99.90;;;;;;4982503;28;20050;-64
2024/01/09 08:41:53;;;;;;;14.35;4.13;;;2.00;99.90;;;;;;5003056;28;20044;-65
2024/01/09 08:44:20;;;;;;;11.68;4.22;;;2.00;99.90;;;;;;5002758;28;20053;-64
2024/01/09 08:46:48;;;;;;;14.55;4.30;;;2.00;99.90;;;;;;5007980;28;20045;-64
2024/01/09 08:49:15;;;;;;;13.30;4.30;;;2.00;99.90;;;;;;5004049;28;20042;-65
2024/01/09 08:51:42;;;;;;;14.18;3.80;;;2.00;99.90;;;;;;5005839;28;20234;-64
2024/01/09 08:54:09;;;;;;;12.80;4.53;;;2.00;99.90;;;;;;5001407;28;20050;-65
2024/01/09 08:56:35;;;;;;;11.20;4.57;;;2.10;99.90;;;;;;4984420;28;20038;-65
2024/01/09 08:59:03;;;;;;;13.20;4.30;;;2.10;99.90;;;;;;5006961;28;20148;-65
2024/01/09 09:01:32;;;;;;;9.80;4.18;;;2.10;99.90;;;;;;5006911;28;20042;-65
2024/01/09 09:03:58;;;;;;;16.08;4.90;;;2.10;99.90;;;;;;4998502;28;20093;-65
2024/01/09 09:06:25;;;;;;;27.63;5.35;;;2.10;99.90;;;;;;5002734;28;20049;-67
2024/01/09 09:08:53;;;;;;;9.93;4.03;;;2.10;99.90;;;;;;5003801;28;20050;-66
2024/01/09 09:11:20;;;;;;;12.18;4.00;;;2.20;99.90;;;;;;5007540;28;20042;-66
2024/01/09 09:13:47;;;;;;;13.80;4.70;;;2.10;99.90;;;;;;4985354;28;20142;-65
2024/01/09 09:16:14;;;;;;;14.13;5.70;;;2.10;99.90;;;;;;4989042;28;20046;-66
2024/01/09 09:18:41;;;;;;;15.35;5.80;;;2.10;99.90;;;;;;5005368;28;20140;-68
2024/01/09 09:21:09;;;;;;;7.22;4.07;;;2.20;99.90;;;;;;5001993;28;20053;-66
2024/01/09 09:23:36;;;;;;;16.30;5.55;;;2.20;99.90;;;;;;4990092;28;20108;-65
2024/01/09 09:26:03;;;;;;;13.07;3.47;;;2.30;99.90;;;;;;5004545;28;20048;-65
2024/01/09 09:28:30;;;;;;;13.77;4.13;;;2.30;99.90;;;;;;5003861;28;20062;-65
2024/01/09 09:31:15;;;;;;;13.02;4.75;;;2.50;99.90;;;;;;5002174;28;20100;-65
2024/01/09 09:33:42;;;;;;;13.73;4.05;;;2.30;99.90;;;;;;5005519;28;20507;-65
2024/01/09 09:36:11;;;;;;;13.60;3.90;;;2.30;99.90;;;;;;4983523;28;20046;-65
2024/01/09 09:38:38;;;;;;;15.95;4.05;;;2.30;99.90;;;;;;5004641;28;20050;-65
2024/01/09 09:41:08;;;;;;;11.57;4.50;;;2.30;99.90;;;;;;4996100;28;20523;-67
2024/01/09 09:43:35;;;;;;;12.48;3.85;;;2.30;99.90;;;;;;5003635;28;20108;-66
2024/01/09 09:46:03;;;;;;;13.65;3.97;;;2.20;99.90;;;;;;4973042;28;20485;-66
2024/01/09 09:48:34;;;;;;;13.00;5.80;;;2.20;99.90;;;;;;5005771;28;20042;-66
2024/01/09 09:51:01;;;;;;;24.88;6.07;;;2.30;99.90;;;;;;4996784;28;20065;-65
2024/01/09 09:53:30;;;;;;;14.07;5.07;;;2.30;99.90;;;;;;5004271;28;20046;-65
2024/01/09 09:55:57;;;;;;;13.27;4.32;;;2.40;99.90;;;;;;5003849;28;20073;-65
2024/01/09 09:58:24;;;;;;;9.48;4.10;;;2.30;99.90;;;;;;5002311;28;20100;-66
2024/01/09 10:00:52;;;;;;;17.67;4.55;;;2.40;99.90;;;;;;4999707;28;20041;-65
2024/01/09 10:03:19;;;;;;;13.50;3.83;;;2.30;99.90;;;;;;4985723;28;20528;-66
2024/01/09 10:05:46;;;;;;;15.07;4.38;;;2.40;99.90;;;;;;4971423;28;20085;-66
2024/01/09 10:08:15;;;;;;;11.05;4.32;;;2.30;99.90;;;;;;4982681;28;20050;-66
2024/01/09 10:10:42;;;;;;;19.23;4.82;;;2.30;99.90;;;;;;4984645;28;20061;-65
2024/01/09 10:13:08;;;;;;;14.88;4.18;;;2.30;99.90;;;;;;4989002;28;20050;-66
2024/01/09 10:15:43;;;;;;;12.23;4.95;;;2.30;99.90;;;;;;4984182;28;20054;-66
2024/01/09 10:18:10;;;;;;;17.08;5.80;;;2.30;99.90;;;;;;4973409;28;20146;-66
2024/01/09 10:20:37;;;;;;;14.38;4.28;;;2.40;99.90;;;;;;4991491;28;20468;-65
2024/01/09 10:23:04;;;;;;;8.85;3.90;;;2.40;99.90;;;;;;5004893;28;20046;-66
2024/01/09 10:25:31;;;;;;;12.75;3.55;;;2.40;99.90;;;;;;4992475;28;20046;-66
2024/01/09 10:27:58;;;;;;;15.15;5.30;;;2.40;99.90;;;;;;5002020;28;20061;-66
2024/01/09 10:30:25;;;;;;;8.98;4.50;;;2.40;99.90;;;;;;4981011;28;20085;-66
2024/01/09 10:32:52;;;;;;;13.25;4.20;;;2.40;99.90;;;;;;5005895;28;20452;-66
2024/01/09 10:35:20;;;;;;;12.55;3.40;;;2.40;99.90;;;;;;4996546;28;20515;-65
2024/01/09 10:37:47;;;;;;;8.95;3.83;;;2.40;99.90;;;;;;5000280;28;20084;-65
2024/01/09 10:40:14;;;;;;;14.18;4.63;;;2.50;99.90;;;;;;4970205;28;20050;-64
2024/01/09 10:42:44;;;;;;;14.60;3.85;;;2.50;99.90;;;;;;4994799;28;20061;-65
2024/01/09 10:45:11;;;;;;;10.45;3.53;;;2.50;99.90;;;;;;4973599;28;20050;-66
2024/01/09 10:47:39;;;;;;;12.68;4.00;;;2.60;99.90;;;;;;4994305;28;20112;-66
2024/01/09 10:50:08;;;;;;;8.05;3.95;;;2.60;99.90;;;;;;5000354;28;20054;-66
2024/01/09 10:52:35;;;;;;;9.13;3.25;;;2.70;99.90;;;;;;4979181;28;20069;-66
2024/01/09 10:55:02;;;;;;;13.43;4.40;;;2.70;99.90;;;;;;4979189;28;20057;-66
2024/01/09 10:57:29;;;;;;;9.52;3.08;;;2.80;99.90;;;;;;4982210;28;20068;-66
2024/01/09 10:59:56;;;;;;;10.73;3.53;;;2.80;99.90;;;;;;4964579;28;20049;-67
2024/01/09 11:02:25;;;;;;;15.23;4.75;;;2.80;99.90;;;;;;4979577;28;20046;-67
2024/01/09 11:04:52;;;;;;;9.68;3.30;;;2.90;99.90;;;;;;5000022;28;20469;-69
2024/01/09 11:07:19;;;;;;;15.15;3.58;;;2.90;99.90;;;;;;4985667;28;20461;-66
2024/01/09 11:09:47;;;;;;;9.60;3.28;;;3.00;99.90;;;;;;4942751;28;20125;-65
2024/01/09 11:12:17;;;;;;;8.73;3.38;;;3.10;99.90;;;;;;4982378;28;20076;-65
2024/01/09 11:14:46;;;;;;;12.93;3.42;;;3.10;99.90;;;;;;4986208;28;20488;-69
2024/01/09 11:17:13;;;;;;;10.98;3.80;;;3.00;99.90;;;;;;4987225;28;20073;-65
2024/01/09 11:19:40;;;;;;;7.13;3.20;;;3.10;99.90;;;;;;4991552;28;20136;-65
2024/01/09 11:22:17;;;;;;;8.15;3.25;;;3.00;99.90;;;;;;4989475;28;20074;-65
2024/01/09 11:24:52;;;;;;;5.45;2.80;;;3.10;99.90;;;;;;4998186;28;20475;-67
2024/01/09 11:27:19;;;;;;;11.20;2.97;;;3.10;99.90;;;;;;5003623;28;20081;-65
2024/01/09 11:29:53;;;;;;;7.18;2.53;;;3.10;99.90;;;;;;5001597;28;20122;-65
2024/01/09 11:32:27;;;;;;;7.97;3.28;;;3.10;99.90;;;;;;4986279;28;20512;-65
2024/01/09 11:35:07;;;;;;;;;;;3.20;99.90;;;;;;5002744;28;20075;-65
2024/01/09 11:37:34;;;;;;;10.95;4.30;;;3.20;99.90;;;;;;5000134;28;19957;-65
2024/01/09 11:40:02;;;;;;;16.15;3.15;;;3.30;99.90;;;;;;4971517;28;20046;-66
2024/01/09 11:42:28;;;;;;;5.50;2.17;;;3.40;99.90;;;;;;4995652;28;20100;-66
2024/01/09 11:44:55;;;;;;;9.23;3.13;;;3.40;99.90;;;;;;4991858;28;20054;-65
2024/01/09 11:47:22;;;;;;;8.00;3.22;;;3.40;99.90;;;;;;5007732;28;20065;-66
2024/01/09 11:49:49;;;;;;;11.20;4.65;;;3.40;99.90;;;;;;5004321;28;20047;-66
2024/01/09 11:52:16;;;;;;;8.50;3.65;;;3.40;99.90;;;;;;5007512;28;20050;-65
2024/01/09 11:54:43;;;;;;;9.60;4.15;;;3.50;99.90;;;;;;4990839;28;20104;-66
2024/01/09 11:57:11;;;;;;;13.68;3.58;;;3.50;99.90;;;;;;4987725;28;20112;-66
2024/01/09 11:59:39;;;;;;;7.88;2.85;;;3.40;99.90;;;;;;4960674;28;20383;-66
2024/01/09 12:02:06;;;;;;;12.25;3.63;;;3.50;99.90;;;;;;4989493;28;20045;-66
2024/01/09 12:04:33;;;;;;;14.02;3.03;;;3.50;99.90;;;;;;4999930;28;20054;-67
2024/01/09 12:07:02;;;;;;;9.73;2.58;;;3.50;99.90;;;;;;5002473;28;20050;-67
2024/01/09 12:09:30;;;;;;;11.90;2.47;;;3.50;99.90;;;;;;5002939;28;20054;-67
2024/01/09 12:11:57;;;;;;;11.40;2.80;;;3.50;99.90;;;;;;5004889;28;20054;-66
2024/01/09 12:14:24;;;;;;;10.70;2.22;;;3.50;99.90;;;;;;5001580;28;20053;-67
2024/01/09 12:16:51;;;;;;;11.50;2.65;;;3.60;99.90;;;;;;5002512;28;20061;-68
2024/01/09 12:19:19;;;;;;;12.88;3.03;;;3.60;99.90;;;;;;4989071;28;20072;-67
2024/01/09 12:21:46;;;;;;;13.40;2.38;;;3.60;99.90;;;;;;5004883;28;20042;-67
2024/01/09 12:24:13;;;;;;;7.97;2.20;;;3.60;99.90;;;;;;4978156;28;20494;-66
2024/01/09 12:26:51;;;;;;;12.20;1.88;;;3.60;99.90;;;;;;4999077;28;20485;-67
2024/01/09 12:29:18;;;;;;;9.55;3.05;;;3.60;99.90;;;;;;5004710;28;20056;-67
2024/01/09 12:31:45;;;;;;;9.55;2.17;;;3.60;99.90;;;;;;4988875;28;20782;-66
2024/01/09 12:34:12;;;;;;;11.15;2.95;;;3.70;99.90;;;;;;5004225;28;20070;-66
2024/01/09 12:36:40;;;;;;;10.38;3.50;;;3.70;99.90;;;;;;4993608;28;20070;-66
2024/01/09 12:39:12;;;;;;;11.00;2.42;;;3.70;99.90;;;;;;4988923;28;20045;-66
2024/01/09 12:41:40;;;;;;;10.27;2.33;;;3.80;99.90;;;;;;5001073;28;20112;-66
2024/01/09 12:44:13;;;;;;;10.23;3.15;;;3.80;99.90;;;;;;5001633;28;20056;-67
2024/01/09 12:46:44;;;;;;;7.60;2.40;;;3.70;99.90;;;;;;5009503;28;20625;-68
2024/01/09 12:49:12;;;;;;;6.95;2.60;;;3.70;99.90;;;;;;4973185;28;20046;-66
2024/01/09 12:51:41;;;;;;;9.65;3.05;;;3.60;99.90;;;;;;4989781;28;20046;-67